Vivien A — TCYC4 — position and weather

sailwx.info

Track history (hours):
 
Tides and Currents Weather Stations Pressure Air Temp Water Temp Dewpoint Dewpoint Depression Visibility Wind Speed Wind Dir Waves Ship Positions

Vivien A

Last reported at 2018-Apr-24 22:30 UTC. Time now 2018-Apr-24 22:40 UTC.
Position N 50°60' E 001°19'.

Length 210 m; draft 9.6 m.

Type: Ship (hazmat cat B). MMSI: 271040635.

Date/timePositionNaut miles runAvg speedWind from/ knotsBaromVisibWave heightAir tempDewpointWater temp
2018-Apr-24 22:30N 50°60' E 001°19'713.7
2018-Apr-24 22:00N 51°04' E 001°27'713.1
2018-Apr-24 21:30N 51°08' E 001°35'613.0
2018-Apr-24 21:01N 51°12' E 001°43'713.1
2018-Apr-24 20:30N 51°18' E 001°49'713.5
2018-Apr-24 20:00N 51°24' E 001°54'714.1
2018-Apr-24 19:30N 51°29' E 002°01'714.2
2018-Apr-24 19:00N 51°35' E 002°08'714.3
2018-Apr-24 18:30N 51°40' E 002°16'714.7
2018-Apr-24 18:00N 51°46' E 002°24'815.1
2018-Apr-24 17:30N 51°51' E 002°32'24412.8
2018-Apr-23 22:29N 54°00' E 008°16'1218.6
2018-Apr-23 21:50N 53°58' E 008°35'618.6
2018-Apr-23 21:30N 53°53' E 008°43'714.4
2018-Apr-23 21:00N 53°51' E 008°54'815.6
2018-Apr-23 20:30N 53°53' E 009°07'611.5
2018-Apr-23 20:00N 53°52' E 009°16'612.4
2018-Apr-23 19:30N 53°47' E 009°23'510.3
2018-Apr-23 19:00N 53°43' E 009°28'510.0
2018-Apr-23 18:30N 53°39' E 009°31'5 9.9
2018-Apr-23 18:00N 53°35' E 009°37'4 8.2
2018-Apr-23 17:30N 53°34' E 009°44'4 7.5
2018-Apr-23 17:00N 53°33' E 009°50'4 7.5
2018-Apr-23 16:30N 53°32' E 009°56'2 4.6
2018-Apr-23 16:00N 53°30' E 009°56'0 0.0
2018-Apr-23 15:30N 53°30' E 009°56'0 0.1
2018-Apr-23 15:00N 53°30' E 009°56'0 0.0
2018-Apr-23 14:30N 53°30' E 009°56'0 0.0
2018-Apr-23 14:00N 53°30' E 009°56'0 0.0
2018-Apr-23 13:30N 53°30' E 009°56'0 0.0
2018-Apr-23 13:00N 53°30' E 009°56'0 0.0
2018-Apr-23 12:30N 53°30' E 009°56'0 0.0
2018-Apr-23 12:00N 53°30' E 009°56'0 0.0
2018-Apr-23 11:30N 53°30' E 009°56'0 0.0
2018-Apr-23 11:00N 53°30' E 009°56'0 0.0
2018-Apr-23 10:30N 53°30' E 009°56'0 0.0
2018-Apr-23 10:00N 53°30' E 009°56'0 0.0
2018-Apr-23 09:30N 53°30' E 009°56'0 0.1
2018-Apr-23 09:00N 53°30' E 009°56'0 0.0
2018-Apr-23 08:30N 53°30' E 009°56'0 0.0
2018-Apr-23 08:00N 53°30' E 009°56'0 0.0
2018-Apr-23 07:30N 53°30' E 009°56'0 0.0
2018-Apr-23 07:00N 53°30' E 009°56'0 0.0
2018-Apr-23 06:30N 53°30' E 009°56'0 0.0
2018-Apr-23 06:00N 53°30' E 009°56'0 0.0
2018-Apr-23 05:30N 53°30' E 009°56'0 0.0
2018-Apr-23 05:00N 53°30' E 009°56'0 0.1
2018-Apr-23 04:30N 53°30' E 009°56'2 4.1
2018-Apr-23 04:00N 53°32' E 009°56'5 9.2
2018-Apr-23 03:30N 53°33' E 009°49'510.3
2018-Apr-23 03:00N 53°34' E 009°40'611.4
2018-Apr-23 02:30N 53°37' E 009°32'511.0
2018-Apr-23 02:01N 53°43' E 009°29'510.7
2018-Apr-23 01:30N 53°47' E 009°23'611.7
2018-Apr-23 01:01N 53°52' E 009°18'510.8
2018-Apr-23 00:31N 53°53' E 009°09'5 9.1
2018-Apr-23 00:00N 53°52' E 009°02'611.1
2018-Apr-22 23:31N 53°50' E 008°52'5 9.6
2018-Apr-22 23:00N 53°52' E 008°44'612.1
2018-Apr-22 22:30N 53°57' E 008°39'815.1
2018-Apr-22 22:01N 53°59' E 008°26'816.4
2018-Apr-22 21:30N 53°60' E 008°12'612.9
2018-Apr-22 21:00N 53°59' E 008°01'5 9.6
2018-Apr-22 20:29N 53°58' E 007°53'8712.2
2018-Apr-22 13:24N 53°36' E 005°32'411.3
2018-Apr-22 13:00N 53°34' E 005°25'815.7
2018-Apr-22 12:30N 53°31' E 005°12'1019.3
2018-Apr-22 12:00N 53°28' E 004°57'1019.2
2018-Apr-22 11:30N 53°23' E 004°43'1019.7
2018-Apr-22 10:58N 53°14' E 004°34'919.6
2018-Apr-22 10:30N 53°06' E 004°27'1019.7
2018-Apr-22 10:00N 52°58' E 004°19'1020.1
2018-Apr-22 09:30N 52°49' E 004°10'1019.5
2018-Apr-22 09:00N 52°41' E 004°01'1419.2
2018-Apr-22 08:17N 52°31' E 003°46'619.3
2018-Apr-22 07:59N 52°27' E 003°39'1319.4
2018-Apr-22 07:19N 52°18' E 003°23'1217.8
2018-Apr-22 06:40N 52°07' E 003°24'917.3
2018-Apr-22 06:09N 51°58' E 003°23'419.7
2018-Apr-22 05:58N 51°54' E 003°21'919.5
2018-Apr-22 05:30N 51°45' E 003°16'714.0
2018-Apr-22 04:59N 51°39' E 003°21'612.2
2018-Apr-22 04:30N 51°33' E 003°25'612.9
2018-Apr-22 04:00N 51°28' E 003°31'4 8.7
2018-Apr-22 03:30N 51°26' E 003°37'4 7.4
2018-Apr-22 03:00N 51°25' E 003°43'612.2
2018-Apr-22 02:30N 51°21' E 003°50'714.1
2018-Apr-22 02:00N 51°26' E 003°58'611.2
2018-Apr-22 01:30N 51°22' E 004°05'611.5
2018-Apr-22 01:00N 51°21' E 004°14'4 7.2
2018-Apr-22 00:30N 51°18' E 004°16'0 0.3
2018-Apr-22 00:00N 51°18' E 004°16'0 0.0
2018-Apr-21 23:30N 51°18' E 004°16'0 0.0
2018-Apr-21 23:00N 51°18' E 004°16'0 0.0
2018-Apr-21 22:30N 51°18' E 004°16'0 0.0
2018-Apr-21 22:00N 51°18' E 004°16'0 0.0
2018-Apr-21 21:30N 51°18' E 004°16'0 0.0
2018-Apr-21 21:00N 51°18' E 004°16'0 0.0
2018-Apr-21 20:30N 51°18' E 004°16'0 0.0
2018-Apr-21 19:57N 51°18' E 004°16'0 0.0
2018-Apr-21 19:30N 51°18' E 004°16'0 0.0
2018-Apr-21 19:00N 51°18' E 004°16'0 0.0
2018-Apr-21 18:30N 51°18' E 004°16'0 0.0
2018-Apr-21 18:00N 51°18' E 004°16'0 0.0
2018-Apr-21 17:30N 51°18' E 004°16'0 0.0
2018-Apr-21 17:00N 51°18' E 004°16'0 0.0
2018-Apr-21 16:30N 51°18' E 004°16'0 0.0
2018-Apr-21 16:00N 51°18' E 004°16'0 0.0
2018-Apr-21 15:30N 51°18' E 004°16'0 0.0
2018-Apr-21 14:56N 51°18' E 004°16'0 0.0
2018-Apr-21 14:27N 51°18' E 004°16'0 0.0
2018-Apr-21 13:54N 51°18' E 004°16'0 0.0
2018-Apr-21 13:30N 51°18' E 004°16'0 0.0
2018-Apr-21 13:00N 51°18' E 004°16'0 0.0
2018-Apr-21 12:30N 51°18' E 004°16'0 0.0
2018-Apr-21 12:00N 51°18' E 004°16'0 0.0
2018-Apr-21 11:30N 51°18' E 004°16'0 0.0
2018-Apr-21 10:51N 51°18' E 004°16'0 0.0
2018-Apr-21 10:30N 51°18' E 004°16'0 0.0
2018-Apr-21 09:57N 51°18' E 004°16'0 0.0
2018-Apr-21 09:30N 51°18' E 004°16'0 0.0
2018-Apr-21 08:57N 51°18' E 004°16'0 0.0
2018-Apr-21 08:27N 51°18' E 004°16'0 0.0
2018-Apr-21 07:57N 51°18' E 004°16'0 0.0
2018-Apr-21 07:30N 51°18' E 004°16'0 0.0
2018-Apr-21 06:54N 51°18' E 004°16'0 0.0
2018-Apr-21 06:30N 51°18' E 004°16'0 0.0
2018-Apr-21 05:57N 51°18' E 004°16'0 0.0
2018-Apr-21 05:30N 51°18' E 004°16'0 0.0
2018-Apr-21 05:00N 51°18' E 004°16'0 0.0
2018-Apr-21 04:30N 51°18' E 004°16'0 0.0
2018-Apr-21 04:00N 51°18' E 004°16'0 0.0
2018-Apr-21 03:30N 51°18' E 004°16'2 4.4
2018-Apr-21 03:00N 51°20' E 004°16'510.2
2018-Apr-21 02:31N 51°23' E 004°10'611.9
2018-Apr-21 02:01N 51°26' E 004°01'713.9
2018-Apr-21 01:31N 51°21' E 003°53'714.3
2018-Apr-21 01:00N 51°24' E 003°43'510.8
2018-Apr-21 00:30N 51°26' E 003°34'612.2
2018-Apr-21 00:00N 51°25' E 003°25'713.4
2018-Apr-20 23:30N 51°24' E 003°14'714.3
2018-Apr-20 23:00N 51°24' E 003°02'816.2
2018-Apr-20 22:30N 51°22' E 002°50'713.2
2018-Apr-20 21:59N 51°22' E 002°39'2 4.9
2018-Apr-20 21:30N 51°22' E 002°35'0 0.7
2018-Apr-20 21:00N 51°22' E 002°36'2 3.4
2018-Apr-20 20:30N 51°22' E 002°33'2 3.2
2018-Apr-20 19:55N 51°22' E 002°30'2 4.7
2018-Apr-20 19:28N 51°21' E 002°27'4 9.6
2018-Apr-20 19:00N 51°20' E 002°20'815.4
2018-Apr-20 18:30N 51°16' E 002°09'815.8
2018-Apr-20 18:01N 51°12' E 001°59'816.2
2018-Apr-20 17:30N 51°08' E 001°47'817.0
2018-Apr-20 17:01N 51°02' E 001°38'917.3
2018-Apr-20 16:31N 50°56' E 001°28'917.7
2018-Apr-20 16:00N 50°47' E 001°24'816.3
2018-Apr-20 15:30N 50°40' E 001°18'1616.3
2018-Apr-20 14:31N 50°29' E 000°59'116.0
2018-Apr-20 14:28N 50°29' E 000°58'816.0
2018-Apr-20 14:00N 50°27' E 000°47'816.1
2018-Apr-20 13:30N 50°25' E 000°35'816.6
2018-Apr-20 13:01N 50°22' E 000°22'817.0
2018-Apr-20 12:31N 50°20' E 000°10'917.4
2018-Apr-20 12:01N 50°18' W 000°04'917.8
2018-Apr-20 11:31N 50°16' W 000°17'918.1
2018-Apr-20 11:01N 50°14' W 000°31'918.1
2018-Apr-20 10:30N 50°11' W 000°45'918.1
2018-Apr-20 10:00N 50°08' W 000°58'917.9
2018-Apr-20 09:30N 50°05' W 001°11'917.4
2018-Apr-20 09:01N 50°04' W 001°24'816.7
2018-Apr-20 08:31N 50°02' W 001°37'815.9
2018-Apr-20 08:00N 50°00' W 001°49'815.3
2018-Apr-20 07:31N 49°58' W 002°01'714.5
2018-Apr-20 07:00N 49°56' W 002°11'713.7
2018-Apr-20 06:28N 49°54' W 002°23'613.4
2018-Apr-20 06:00N 49°52' W 002°32'613.1
2018-Apr-20 05:31N 49°51' W 002°42'812.8
2018-Apr-20 04:54N 49°48' W 002°53'512.7
2018-Apr-20 04:30N 49°45' W 002°60'713.1
2018-Apr-20 03:56N 49°42' W 003°10'614.2
2018-Apr-20 03:30N 49°39' W 003°18'814.2
2018-Apr-20 02:58N 49°35' W 003°28'714.4
2018-Apr-20 02:30N 49°32' W 003°37'814.3
2018-Apr-20 01:56N 49°28' W 003°48'614.1
2018-Apr-20 01:30N 49°25' W 003°56'813.8
2018-Apr-20 00:56N 49°20' W 004°06'613.2
2018-Apr-20 00:30N 49°17' W 004°14'3313.5
2018-Apr-19 22:01N 49°01' W 004°58'014.0
2018-Apr-19 22:00N 49°01' W 004°59'6414.7
2018-Apr-19 17:38N 48°13' W 006°03'1115.6
2018-Apr-19 16:57N 48°03' W 006°11'51814.4
2018-Apr-18 04:57N 39°50' W 009°49'614.8
2018-Apr-18 04:31N 39°44' W 009°49'814.6
2018-Apr-18 03:59N 39°36' W 009°50'714.7
2018-Apr-18 03:31N 39°29' W 009°50'714.8
2018-Apr-18 03:00N 39°22' W 009°51'815.0
2018-Apr-18 02:30N 39°14' W 009°51'714.6
2018-Apr-18 02:00N 39°07' W 009°52'714.6
2018-Apr-18 01:30N 38°59' W 009°52'714.6
2018-Apr-18 01:01N 38°52' W 009°51'714.6
2018-Apr-18 00:31N 38°45' W 009°51'714.4
2018-Apr-18 00:00N 38°38' W 009°49'714.1
2018-Apr-17 23:30N 38°31' W 009°48'714.0
2018-Apr-17 23:00N 38°24' W 009°46'714.0
2018-Apr-17 22:30N 38°17' W 009°44'713.8
2018-Apr-17 22:00N 38°11' W 009°41'713.7
2018-Apr-17 21:30N 38°04' W 009°39'713.6
2018-Apr-17 21:00N 37°57' W 009°37'713.6
2018-Apr-17 20:30N 37°51' W 009°35'713.7
2018-Apr-17 20:01N 37°44' W 009°34'713.8
2018-Apr-17 19:31N 37°37' W 009°32'714.0
2018-Apr-17 19:00N 37°30' W 009°30'714.2
2018-Apr-17 18:31N 37°23' W 009°28'714.2
2018-Apr-17 18:01N 37°16' W 009°26'714.3
2018-Apr-17 17:31N 37°10' W 009°24'714.4
2018-Apr-17 17:00N 37°02' W 009°22'2613.4
2018-Apr-17 15:04N 36°43' W 009°01'114.8
2018-Apr-17 15:00N 36°42' W 008°60'714.8
2018-Apr-17 14:31N 36°40' W 008°51'  
Track history (hours):
 
Tides and Currents Weather Stations Pressure Air Temp Water Temp Dewpoint Dewpoint Depression Visibility Wind Speed Wind Dir Waves Ship Positions

Vivien A

Last reported at 2018-Apr-24 22:30 UTC. Time now 2018-Apr-24 22:40 UTC.
Position N 50°60' E 001°19'.

Length 210 m; draft 9.6 m.

Type: Ship (hazmat cat B). MMSI: 271040635.

Date/timePositionNaut miles runAvg speedWind from/ knotsBaromVisibWave heightAir tempDewpointWater temp
2018-Apr-24 22:30N 50°60' E 001°19'713.7
2018-Apr-24 22:00N 51°04' E 001°27'713.1
2018-Apr-24 21:30N 51°08' E 001°35'613.0
2018-Apr-24 21:01N 51°12' E 001°43'713.1
2018-Apr-24 20:30N 51°18' E 001°49'713.5
2018-Apr-24 20:00N 51°24' E 001°54'714.1
2018-Apr-24 19:30N 51°29' E 002°01'714.2
2018-Apr-24 19:00N 51°35' E 002°08'714.3
2018-Apr-24 18:30N 51°40' E 002°16'714.7
2018-Apr-24 18:00N 51°46' E 002°24'815.1
2018-Apr-24 17:30N 51°51' E 002°32'24412.8
2018-Apr-23 22:29N 54°00' E 008°16'1218.6
2018-Apr-23 21:50N 53°58' E 008°35'618.6
2018-Apr-23 21:30N 53°53' E 008°43'714.4
2018-Apr-23 21:00N 53°51' E 008°54'815.6
2018-Apr-23 20:30N 53°53' E 009°07'611.5
2018-Apr-23 20:00N 53°52' E 009°16'612.4
2018-Apr-23 19:30N 53°47' E 009°23'510.3
2018-Apr-23 19:00N 53°43' E 009°28'510.0
2018-Apr-23 18:30N 53°39' E 009°31'5 9.9
2018-Apr-23 18:00N 53°35' E 009°37'4 8.2
2018-Apr-23 17:30N 53°34' E 009°44'4 7.5
2018-Apr-23 17:00N 53°33' E 009°50'4 7.5
2018-Apr-23 16:30N 53°32' E 009°56'2 4.6
2018-Apr-23 16:00N 53°30' E 009°56'0 0.0
2018-Apr-23 15:30N 53°30' E 009°56'0 0.1
2018-Apr-23 15:00N 53°30' E 009°56'0 0.0
2018-Apr-23 14:30N 53°30' E 009°56'0 0.0
2018-Apr-23 14:00N 53°30' E 009°56'0 0.0
2018-Apr-23 13:30N 53°30' E 009°56'0 0.0
2018-Apr-23 13:00N 53°30' E 009°56'0 0.0
2018-Apr-23 12:30N 53°30' E 009°56'0 0.0
2018-Apr-23 12:00N 53°30' E 009°56'0 0.0
2018-Apr-23 11:30N 53°30' E 009°56'0 0.0
2018-Apr-23 11:00N 53°30' E 009°56'0 0.0
2018-Apr-23 10:30N 53°30' E 009°56'0 0.0
2018-Apr-23 10:00N 53°30' E 009°56'0 0.0
2018-Apr-23 09:30N 53°30' E 009°56'0 0.1
2018-Apr-23 09:00N 53°30' E 009°56'0 0.0
2018-Apr-23 08:30N 53°30' E 009°56'0 0.0
2018-Apr-23 08:00N 53°30' E 009°56'0 0.0
2018-Apr-23 07:30N 53°30' E 009°56'0 0.0
2018-Apr-23 07:00N 53°30' E 009°56'0 0.0
2018-Apr-23 06:30N 53°30' E 009°56'0 0.0
2018-Apr-23 06:00N 53°30' E 009°56'0 0.0
2018-Apr-23 05:30N 53°30' E 009°56'0 0.0
2018-Apr-23 05:00N 53°30' E 009°56'0 0.1
2018-Apr-23 04:30N 53°30' E 009°56'2 4.1
2018-Apr-23 04:00N 53°32' E 009°56'5 9.2
2018-Apr-23 03:30N 53°33' E 009°49'510.3
2018-Apr-23 03:00N 53°34' E 009°40'611.4
2018-Apr-23 02:30N 53°37' E 009°32'511.0
2018-Apr-23 02:01N 53°43' E 009°29'510.7
2018-Apr-23 01:30N 53°47' E 009°23'611.7
2018-Apr-23 01:01N 53°52' E 009°18'510.8
2018-Apr-23 00:31N 53°53' E 009°09'5 9.1
2018-Apr-23 00:00N 53°52' E 009°02'611.1
2018-Apr-22 23:31N 53°50' E 008°52'5 9.6
2018-Apr-22 23:00N 53°52' E 008°44'612.1
2018-Apr-22 22:30N 53°57' E 008°39'815.1
2018-Apr-22 22:01N 53°59' E 008°26'816.4
2018-Apr-22 21:30N 53°60' E 008°12'612.9
2018-Apr-22 21:00N 53°59' E 008°01'5 9.6
2018-Apr-22 20:29N 53°58' E 007°53'8712.2
2018-Apr-22 13:24N 53°36' E 005°32'411.3
2018-Apr-22 13:00N 53°34' E 005°25'815.7
2018-Apr-22 12:30N 53°31' E 005°12'1019.3
2018-Apr-22 12:00N 53°28' E 004°57'1019.2
2018-Apr-22 11:30N 53°23' E 004°43'1019.7
2018-Apr-22 10:58N 53°14' E 004°34'919.6
2018-Apr-22 10:30N 53°06' E 004°27'1019.7
2018-Apr-22 10:00N 52°58' E 004°19'1020.1
2018-Apr-22 09:30N 52°49' E 004°10'1019.5
2018-Apr-22 09:00N 52°41' E 004°01'1419.2
2018-Apr-22 08:17N 52°31' E 003°46'619.3
2018-Apr-22 07:59N 52°27' E 003°39'1319.4
2018-Apr-22 07:19N 52°18' E 003°23'1217.8
2018-Apr-22 06:40N 52°07' E 003°24'917.3
2018-Apr-22 06:09N 51°58' E 003°23'419.7
2018-Apr-22 05:58N 51°54' E 003°21'919.5
2018-Apr-22 05:30N 51°45' E 003°16'714.0
2018-Apr-22 04:59N 51°39' E 003°21'612.2
2018-Apr-22 04:30N 51°33' E 003°25'612.9
2018-Apr-22 04:00N 51°28' E 003°31'4 8.7
2018-Apr-22 03:30N 51°26' E 003°37'4 7.4
2018-Apr-22 03:00N 51°25' E 003°43'612.2
2018-Apr-22 02:30N 51°21' E 003°50'714.1
2018-Apr-22 02:00N 51°26' E 003°58'611.2
2018-Apr-22 01:30N 51°22' E 004°05'611.5
2018-Apr-22 01:00N 51°21' E 004°14'4 7.2
2018-Apr-22 00:30N 51°18' E 004°16'0 0.3
2018-Apr-22 00:00N 51°18' E 004°16'0 0.0
2018-Apr-21 23:30N 51°18' E 004°16'0 0.0
2018-Apr-21 23:00N 51°18' E 004°16'0 0.0
2018-Apr-21 22:30N 51°18' E 004°16'0 0.0
2018-Apr-21 22:00N 51°18' E 004°16'0 0.0
2018-Apr-21 21:30N 51°18' E 004°16'0 0.0
2018-Apr-21 21:00N 51°18' E 004°16'0 0.0
2018-Apr-21 20:30N 51°18' E 004°16'0 0.0
2018-Apr-21 19:57N 51°18' E 004°16'0 0.0
2018-Apr-21 19:30N 51°18' E 004°16'0 0.0
2018-Apr-21 19:00N 51°18' E 004°16'0 0.0
2018-Apr-21 18:30N 51°18' E 004°16'0 0.0
2018-Apr-21 18:00N 51°18' E 004°16'0 0.0
2018-Apr-21 17:30N 51°18' E 004°16'0 0.0
2018-Apr-21 17:00N 51°18' E 004°16'0 0.0
2018-Apr-21 16:30N 51°18' E 004°16'0 0.0
2018-Apr-21 16:00N 51°18' E 004°16'0 0.0
2018-Apr-21 15:30N 51°18' E 004°16'0 0.0
2018-Apr-21 14:56N 51°18' E 004°16'0 0.0
2018-Apr-21 14:27N 51°18' E 004°16'0 0.0
2018-Apr-21 13:54N 51°18' E 004°16'0 0.0
2018-Apr-21 13:30N 51°18' E 004°16'0 0.0
2018-Apr-21 13:00N 51°18' E 004°16'0 0.0
2018-Apr-21 12:30N 51°18' E 004°16'0 0.0
2018-Apr-21 12:00N 51°18' E 004°16'0 0.0
2018-Apr-21 11:30N 51°18' E 004°16'0 0.0
2018-Apr-21 10:51N 51°18' E 004°16'0 0.0
2018-Apr-21 10:30N 51°18' E 004°16'0 0.0
2018-Apr-21 09:57N 51°18' E 004°16'0 0.0
2018-Apr-21 09:30N 51°18' E 004°16'0 0.0
2018-Apr-21 08:57N 51°18' E 004°16'0 0.0
2018-Apr-21 08:27N 51°18' E 004°16'0 0.0
2018-Apr-21 07:57N 51°18' E 004°16'0 0.0
2018-Apr-21 07:30N 51°18' E 004°16'0 0.0
2018-Apr-21 06:54N 51°18' E 004°16'0 0.0
2018-Apr-21 06:30N 51°18' E 004°16'0 0.0
2018-Apr-21 05:57N 51°18' E 004°16'0 0.0
2018-Apr-21 05:30N 51°18' E 004°16'0 0.0
2018-Apr-21 05:00N 51°18' E 004°16'0 0.0
2018-Apr-21 04:30N 51°18' E 004°16'0 0.0
2018-Apr-21 04:00N 51°18' E 004°16'0 0.0
2018-Apr-21 03:30N 51°18' E 004°16'2 4.4
2018-Apr-21 03:00N 51°20' E 004°16'510.2
2018-Apr-21 02:31N 51°23' E 004°10'611.9
2018-Apr-21 02:01N 51°26' E 004°01'713.9
2018-Apr-21 01:31N 51°21' E 003°53'714.3
2018-Apr-21 01:00N 51°24' E 003°43'510.8
2018-Apr-21 00:30N 51°26' E 003°34'612.2
2018-Apr-21 00:00N 51°25' E 003°25'713.4
2018-Apr-20 23:30N 51°24' E 003°14'714.3
2018-Apr-20 23:00N 51°24' E 003°02'816.2
2018-Apr-20 22:30N 51°22' E 002°50'713.2
2018-Apr-20 21:59N 51°22' E 002°39'2 4.9
2018-Apr-20 21:30N 51°22' E 002°35'0 0.7
2018-Apr-20 21:00N 51°22' E 002°36'2 3.4
2018-Apr-20 20:30N 51°22' E 002°33'2 3.2
2018-Apr-20 19:55N 51°22' E 002°30'2 4.7
2018-Apr-20 19:28N 51°21' E 002°27'4 9.6
2018-Apr-20 19:00N 51°20' E 002°20'815.4
2018-Apr-20 18:30N 51°16' E 002°09'815.8
2018-Apr-20 18:01N 51°12' E 001°59'816.2
2018-Apr-20 17:30N 51°08' E 001°47'817.0
2018-Apr-20 17:01N 51°02' E 001°38'917.3
2018-Apr-20 16:31N 50°56' E 001°28'917.7
2018-Apr-20 16:00N 50°47' E 001°24'816.3
2018-Apr-20 15:30N 50°40' E 001°18'1616.3
2018-Apr-20 14:31N 50°29' E 000°59'116.0
2018-Apr-20 14:28N 50°29' E 000°58'816.0
2018-Apr-20 14:00N 50°27' E 000°47'816.1
2018-Apr-20 13:30N 50°25' E 000°35'816.6
2018-Apr-20 13:01N 50°22' E 000°22'817.0
2018-Apr-20 12:31N 50°20' E 000°10'917.4
2018-Apr-20 12:01N 50°18' W 000°04'917.8
2018-Apr-20 11:31N 50°16' W 000°17'918.1
2018-Apr-20 11:01N 50°14' W 000°31'918.1
2018-Apr-20 10:30N 50°11' W 000°45'918.1
2018-Apr-20 10:00N 50°08' W 000°58'917.9
2018-Apr-20 09:30N 50°05' W 001°11'917.4
2018-Apr-20 09:01N 50°04' W 001°24'816.7
2018-Apr-20 08:31N 50°02' W 001°37'815.9
2018-Apr-20 08:00N 50°00' W 001°49'815.3
2018-Apr-20 07:31N 49°58' W 002°01'714.5
2018-Apr-20 07:00N 49°56' W 002°11'713.7
2018-Apr-20 06:28N 49°54' W 002°23'613.4
2018-Apr-20 06:00N 49°52' W 002°32'613.1
2018-Apr-20 05:31N 49°51' W 002°42'812.8
2018-Apr-20 04:54N 49°48' W 002°53'512.7
2018-Apr-20 04:30N 49°45' W 002°60'713.1
2018-Apr-20 03:56N 49°42' W 003°10'614.2
2018-Apr-20 03:30N 49°39' W 003°18'814.2
2018-Apr-20 02:58N 49°35' W 003°28'714.4
2018-Apr-20 02:30N 49°32' W 003°37'814.3
2018-Apr-20 01:56N 49°28' W 003°48'614.1
2018-Apr-20 01:30N 49°25' W 003°56'813.8
2018-Apr-20 00:56N 49°20' W 004°06'613.2
2018-Apr-20 00:30N 49°17' W 004°14'3313.5
2018-Apr-19 22:01N 49°01' W 004°58'014.0
2018-Apr-19 22:00N 49°01' W 004°59'6414.7
2018-Apr-19 17:38N 48°13' W 006°03'1115.6
2018-Apr-19 16:57N 48°03' W 006°11'51814.4
2018-Apr-18 04:57N 39°50' W 009°49'614.8
2018-Apr-18 04:31N 39°44' W 009°49'814.6
2018-Apr-18 03:59N 39°36' W 009°50'714.7
2018-Apr-18 03:31N 39°29' W 009°50'714.8
2018-Apr-18 03:00N 39°22' W 009°51'815.0
2018-Apr-18 02:30N 39°14' W 009°51'714.6
2018-Apr-18 02:00N 39°07' W 009°52'714.6
2018-Apr-18 01:30N 38°59' W 009°52'714.6
2018-Apr-18 01:01N 38°52' W 009°51'714.6
2018-Apr-18 00:31N 38°45' W 009°51'714.4
2018-Apr-18 00:00N 38°38' W 009°49'714.1
2018-Apr-17 23:30N 38°31' W 009°48'714.0
2018-Apr-17 23:00N 38°24' W 009°46'714.0
2018-Apr-17 22:30N 38°17' W 009°44'713.8
2018-Apr-17 22:00N 38°11' W 009°41'713.7
2018-Apr-17 21:30N 38°04' W 009°39'713.6
2018-Apr-17 21:00N 37°57' W 009°37'713.6
2018-Apr-17 20:30N 37°51' W 009°35'713.7
2018-Apr-17 20:01N 37°44' W 009°34'713.8
2018-Apr-17 19:31N 37°37' W 009°32'714.0
2018-Apr-17 19:00N 37°30' W 009°30'714.2
2018-Apr-17 18:31N 37°23' W 009°28'714.2
2018-Apr-17 18:01N 37°16' W 009°26'714.3
2018-Apr-17 17:31N 37°10' W 009°24'714.4
2018-Apr-17 17:00N 37°02' W 009°22'2613.4
2018-Apr-17 15:04N 36°43' W 009°01'114.8
2018-Apr-17 15:00N 36°42' W 008°60'714.8
2018-Apr-17 14:31N 36°40' W 008°51'  

Dump ship's entire track history